Time;durP1;ratioP1;P1;durP2;ratioP2;P2;SDS_P1;SDS_P2;PMS_P1;PMS_P2;Temp;Humidity;BMP_temperature;BMP_pressure;BME280_temperature;BME280_humidity;BME280_pressure;Samples;Min_cycle;Max_cycle;Signal;HPM_P1;HPM_P2
2023/07/21 00:00:15;;;;;;;5.28;3.70;;;;;;;23.54;46.18;100986.19;5034949;28;20038;-62
2023/07/21 00:02:41;;;;;;;6.45;4.35;;;;;;;23.52;45.30;100994.59;5033448;28;20060;-62
2023/07/21 00:05:07;;;;;;;8.73;4.63;;;;;;;23.51;45.71;100986.59;5015348;28;20444;-62
2023/07/21 00:07:35;;;;;;;8.40;4.80;;;;;;;23.49;46.27;100981.34;5014265;28;20038;-62
2023/07/21 00:10:07;;;;;;;7.88;4.90;;;;;;;23.50;45.58;100985.78;5033153;28;20033;-62
2023/07/21 00:12:37;;;;;;;5.68;4.38;;;;;;;23.48;45.82;100981.56;5015604;28;20519;-62
2023/07/21 00:15:06;;;;;;;6.28;4.32;;;;;;;23.48;46.11;100982.38;5033146;28;20424;-62
2023/07/21 00:17:34;;;;;;;8.10;4.40;;;;;;;23.49;45.55;100989.56;5051389;28;20025;-62
2023/07/21 00:20:10;;;;;;;7.10;4.13;;;;;;;23.48;46.17;100981.56;5051691;28;20040;-61
2023/07/21 00:22:35;;;;;;;6.80;4.28;;;;;;;23.46;45.72;100979.03;5035456;28;20020;-61
2023/07/21 00:25:01;;;;;;;5.38;4.10;;;;;;;23.46;46.55;100978.19;5052806;28;20021;-62
2023/07/21 00:27:27;;;;;;;6.90;5.18;;;;;;;23.43;46.00;100968.50;5052564;28;20491;-61
2023/07/21 00:29:52;;;;;;;6.68;4.90;;;;;;;23.45;45.59;100974.59;5044979;28;20021;-61
2023/07/21 00:32:19;;;;;;;8.57;4.75;;;;;;;23.43;45.77;100968.50;5040385;28;20399;-61
2023/07/21 00:34:46;;;;;;;8.10;4.03;;;;;;;23.40;46.37;100966.19;5051530;28;20032;-62
2023/07/21 00:37:12;;;;;;;7.05;4.38;;;;;;;23.41;46.02;100969.78;5051413;28;20112;-61
2023/07/21 00:39:39;;;;;;;7.88;4.78;;;;;;;23.43;46.89;100973.97;5054359;28;20045;-61
2023/07/21 00:42:04;;;;;;;7.90;4.57;;;;;;;23.43;46.28;100959.47;5055109;28;20500;-62
2023/07/21 00:44:34;;;;;;;6.88;5.50;;;;;;;23.45;46.96;100971.88;5056389;28;20094;-62
2023/07/21 00:47:00;;;;;;;9.50;4.93;;;;;;;23.46;46.99;100957.16;5055361;28;20079;-62
2023/07/21 00:49:26;;;;;;;7.22;5.03;;;;;;;23.44;46.62;100952.94;5055379;28;20111;-62
2023/07/21 00:51:52;;;;;;;7.10;4.80;;;;;;;23.45;46.88;100955.47;5055408;28;20458;-62
2023/07/21 00:54:17;;;;;;;5.50;4.50;;;;;;;23.43;46.98;100952.09;5054821;28;20037;-62
2023/07/21 00:56:45;;;;;;;7.85;4.55;;;;;;;23.39;46.50;100953.59;5054887;28;20030;-61
2023/07/21 00:59:10;;;;;;;8.38;5.32;;;;;;;23.38;46.50;100953.78;5055312;28;20108;-62
2023/07/21 01:01:36;;;;;;;12.25;4.70;;;;;;;23.36;46.98;100951.25;5056298;28;20112;-61
2023/07/21 01:04:02;;;;;;;6.70;4.90;;;;;;;23.37;46.47;100957.53;5054874;28;20059;-62
2023/07/21 01:06:28;;;;;;;9.90;4.15;;;;;;;23.36;46.90;100955.84;5056058;28;20045;-62
2023/07/21 01:08:58;;;;;;;10.77;4.50;;;;;;;23.34;46.89;100944.28;5038270;28;20040;-62
2023/07/21 01:11:24;;;;;;;4.90;4.40;;;;;;;23.31;46.84;100953.72;5054792;28;20049;-62
2023/07/21 01:13:53;;;;;;;7.18;4.93;;;;;;;23.30;46.51;100951.22;5054950;28;20112;-61
2023/07/21 01:16:20;;;;;;;4.75;4.25;;;;;;;23.27;46.64;100952.47;5055011;28;20044;-61
2023/07/21 01:18:45;;;;;;;5.40;4.53;;;;;;;23.25;46.51;100942.81;5049942;28;20022;-62
2023/07/21 01:21:12;;;;;;;9.27;4.72;;;;;;;23.23;46.94;100945.75;5036733;28;20611;-62
2023/07/21 01:23:44;;;;;;;12.68;4.30;;;;;;;23.21;47.33;100947.84;5034754;28;20042;-61
2023/07/21 01:26:11;;;;;;;6.85;4.28;;;;;;;23.18;47.04;100946.38;5034595;28;20026;-62
2023/07/21 01:28:39;;;;;;;12.20;4.65;;;;;;;23.16;46.88;100945.75;5034742;28;20057;-62
2023/07/21 01:31:05;;;;;;;6.53;4.60;;;;;;;23.15;46.87;100948.66;5018125;28;20040;-61
2023/07/21 01:33:32;;;;;;;6.18;4.63;;;;;;;23.13;46.98;100942.59;5034704;28;20095;-61
2023/07/21 01:35:59;;;;;;;6.00;4.63;;;;;;;23.14;46.48;100942.34;5033494;28;20034;-61
2023/07/21 01:38:24;;;;;;;7.65;4.97;;;;;;;23.14;47.54;100944.28;5034383;28;20057;-61
2023/07/21 01:40:50;;;;;;;9.75;5.32;;;;;;;23.14;47.49;100945.09;5034310;28;20048;-61
2023/07/21 01:43:16;;;;;;;7.07;5.03;;;;;;;23.15;47.43;100937.75;5018147;28;20051;-61
2023/07/21 01:45:42;;;;;;;8.77;4.82;;;;;;;23.14;47.28;100925.97;5034184;28;20038;-60
2023/07/21 01:48:07;;;;;;;8.05;4.78;;;;;;;23.11;46.95;100920.09;5034310;28;20108;-62
2023/07/21 01:50:34;;;;;;;6.40;4.63;;;;;;;23.12;47.08;100916.28;5034242;28;20095;-63
2023/07/21 01:53:00;;;;;;;8.38;5.30;;;;;;;23.12;47.51;100928.06;5033956;28;20493;-62
2023/07/21 01:55:30;;;;;;;9.05;5.28;;;;;;;23.10;47.15;100912.94;5034017;28;20172;-63
2023/07/21 01:58:02;;;;;;;6.93;5.07;;;;;;;23.11;46.96;100914.63;5032766;28;20386;-63
2023/07/21 02:00:32;;;;;;;9.60;4.97;;;;;;;23.08;47.40;100904.94;5033908;28;20036;-62
2023/07/21 02:02:59;;;;;;;10.38;4.80;;;;;;;23.12;47.36;100908.09;5017327;28;20382;-63
2023/07/21 02:05:25;;;;;;;7.57;5.30;;;;;;;23.12;47.71;100905.34;5033676;28;20041;-61
2023/07/21 02:07:51;;;;;;;12.07;5.82;;;;;;;23.13;47.14;100898.84;5017334;28;20037;-61
2023/07/21 02:10:17;;;;;;;7.20;5.53;;;;;;;23.12;47.03;100905.34;5034001;28;20029;-62
2023/07/21 02:12:43;;;;;;;10.38;5.20;;;;;;;23.11;47.65;100906.44;5033901;28;20079;-61
2023/07/21 02:15:09;;;;;;;6.70;5.43;;;;;;;23.12;46.90;100899.88;5017452;28;20030;-62
2023/07/21 02:17:35;;;;;;;7.35;5.50;;;;;;;23.10;46.87;100902.84;5033460;28;20044;-61
2023/07/21 02:20:03;;;;;;;11.63;5.90;;;;;;;23.10;47.82;100896.53;5017073;28;20037;-61
2023/07/21 02:22:28;;;;;;;7.13;5.13;;;;;;;23.08;47.50;100899.50;5017424;28;20034;-61
2023/07/21 02:24:53;;;;;;;9.32;5.82;;;;;;;22.98;47.95;100888.09;5029614;28;20523;-61
2023/07/21 02:27:19;;;;;;;7.57;5.45;;;;;;;23.07;47.67;100908.72;5036624;28;20060;-61
2023/07/21 02:29:50;;;;;;;13.73;5.75;;;;;;;23.08;48.04;100906.84;5035626;28;20493;-61
2023/07/21 02:32:15;;;;;;;14.38;6.35;;;;;;;23.05;47.13;100905.38;5053308;28;20044;-60
2023/07/21 02:34:41;;;;;;;7.05;5.43;;;;;;;23.04;47.29;100905.56;5053242;28;20033;-62
2023/07/21 02:37:06;;;;;;;8.15;5.78;;;;;;;23.06;47.30;100906.22;5052010;28;20086;-61
2023/07/21 02:39:32;;;;;;;6.30;5.07;;;;;;;23.04;47.09;100906.41;5048956;28;20045;-61
2023/07/21 02:41:59;;;;;;;7.03;4.82;;;;;;;23.04;47.61;100908.28;5054231;28;20065;-61
2023/07/21 02:44:24;;;;;;;6.95;5.65;;;;;;;23.00;47.40;100907.03;5052915;28;20162;-62
2023/07/21 02:46:50;;;;;;;10.93;4.75;;;;;;;23.00;47.12;100907.03;5052845;28;20552;-62
2023/07/21 02:49:16;;;;;;;5.00;4.30;;;;;;;22.96;47.02;100900.28;5052759;28;20040;-61
2023/07/21 02:51:42;;;;;;;5.90;4.22;;;;;;;22.93;47.53;100903.44;5054225;28;20039;-61
2023/07/21 02:54:08;;;;;;;6.55;4.65;;;;;;;22.88;47.04;100903.22;5054062;28;20029;-61
2023/07/21 02:56:34;;;;;;;8.60;5.47;;;;;;;22.86;47.57;100910.81;5053822;28;20029;-61
2023/07/21 02:59:00;;;;;;;7.13;5.20;;;;;;;22.80;47.23;100904.28;5036253;28;20083;-62
2023/07/21 03:01:26;;;;;;;6.65;4.80;;;;;;;22.77;47.07;100906.56;5052008;28;20117;-62
2023/07/21 03:03:54;;;;;;;13.23;5.53;;;;;;;22.74;47.09;100898.78;5036552;28;20576;-61
2023/07/21 03:06:20;;;;;;;7.20;4.60;;;;;;;22.71;47.04;100910.13;5053877;28;20078;-62
2023/07/21 03:08:45;;;;;;;8.48;4.78;;;;;;;22.68;47.27;100902.34;5052637;28;20116;-62
2023/07/21 03:11:14;;;;;;;5.22;4.50;;;;;;;22.67;47.98;100906.13;5053931;28;20496;-62
2023/07/21 03:13:40;;;;;;;5.95;4.57;;;;;;;22.63;47.59;100900.19;5040765;28;20065;-62
2023/07/21 03:16:07;;;;;;;5.45;4.30;;;;;;;22.62;47.83;100898.50;5051967;28;20033;-61
2023/07/21 03:18:32;;;;;;;6.68;4.78;;;;;;;22.57;47.67;100901.88;5053541;28;20112;-61
2023/07/21 03:21:01;;;;;;;5.78;4.30;;;;;;;22.55;47.86;100901.25;5041525;28;20168;-62
2023/07/21 03:23:26;;;;;;;4.40;3.40;;;;;;;22.52;47.88;100893.47;5034144;28;20030;-61
2023/07/21 03:25:51;;;;;;;4.18;3.00;;;;;;;22.49;47.44;100891.13;5040044;28;20120;-62
2023/07/21 03:28:17;;;;;;;3.78;2.60;;;;;;;22.47;46.89;100887.75;5052027;28;20040;-61
2023/07/21 03:30:43;;;;;;;4.88;2.95;;;;;;;22.45;47.36;100900.75;5052208;28;20033;-61
2023/07/21 03:33:09;;;;;;;7.10;3.80;;;;;;;22.41;47.75;100890.47;5052325;28;20568;-62
2023/07/21 03:35:34;;;;;;;5.32;4.07;;;;;;;22.38;48.04;100880.81;5053418;28;20064;-61
2023/07/21 03:38:00;;;;;;;6.03;4.22;;;;;;;22.36;47.12;100882.06;5050210;28;20033;-61
2023/07/21 03:40:25;;;;;;;5.47;4.22;;;;;;;22.36;47.65;100887.53;5032012;28;20441;-61
2023/07/21 03:42:52;;;;;;;5.63;4.75;;;;;;;22.35;47.39;100880.38;5032193;28;20046;-62
2023/07/21 03:45:17;;;;;;;5.22;4.15;;;;;;;22.34;47.28;100884.97;5031947;28;20026;-62
2023/07/21 03:47:42;;;;;;;7.90;3.75;;;;;;;22.32;47.53;100870.69;5033338;28;20386;-62
2023/07/21 03:50:08;;;;;;;5.10;4.18;;;;;;;22.30;47.66;100872.81;5032041;28;20512;-61
2023/07/21 03:52:34;;;;;;;7.32;5.30;;;;;;;22.31;48.18;100869.00;5032386;28;20079;-61
2023/07/21 03:54:59;;;;;;;8.32;4.63;;;;;;;22.31;47.58;100873.63;5031781;28;20489;-61
2023/07/21 03:57:25;;;;;;;9.27;4.68;;;;;;;22.28;47.11;100877.59;5031702;28;20109;-61
2023/07/21 03:59:52;;;;;;;5.35;4.40;;;;;;;22.27;47.58;100873.22;5015672;28;20428;-62
2023/07/21 04:02:18;;;;;;;9.63;5.75;;;;;;;22.26;47.48;100871.50;4999371;28;20080;-61
2023/07/21 04:04:45;;;;;;;8.30;5.28;;;;;;;22.28;47.62;100877.59;5043982;28;20025;-62
2023/07/21 04:07:11;;;;;;;7.28;4.70;;;;;;;22.26;47.82;100871.50;5051893;28;20025;-62
2023/07/21 04:09:37;;;;;;;9.05;4.88;;;;;;;22.26;47.84;100871.50;5053187;28;20067;-62
2023/07/21 04:12:03;;;;;;;7.55;5.28;;;;;;;22.25;47.66;100867.09;5051471;28;20036;-62
2023/07/21 04:14:31;;;;;;;6.20;4.78;;;;;;;22.24;47.99;100870.88;5060327;28;20045;-62
2023/07/21 04:16:56;;;;;;;6.30;5.15;;;;;;;22.24;48.12;100868.16;5036719;28;20045;-61
2023/07/21 04:19:25;;;;;;;3.97;3.42;;;;;;;22.24;47.76;100873.63;5043043;28;20385;-61
2023/07/21 04:21:51;;;;;;;5.50;4.22;;;;;;;22.24;47.87;100881.81;5051777;28;20025;-61
2023/07/21 04:24:17;;;;;;;6.30;4.00;;;;;;;22.23;47.17;100871.91;5035334;28;20093;-61
2023/07/21 04:26:43;;;;;;;4.55;3.50;;;;;;;22.21;47.28;100871.28;5031422;28;20014;-61
2023/07/21 04:29:08;;;;;;;6.20;3.65;;;;;;;22.19;47.46;100870.66;5031849;28;20036;-60
2023/07/21 04:31:34;;;;;;;5.95;3.92;;;;;;;22.22;47.62;100875.69;5031461;28;20495;-61
2023/07/21 04:33:59;;;;;;;4.18;3.78;;;;;;;22.22;47.94;100881.13;5032583;28;20079;-61
2023/07/21 04:36:25;;;;;;;7.82;4.53;;;;;;;22.22;46.96;100872.94;5031315;28;20465;-61
2023/07/21 04:38:51;;;;;;;7.05;4.28;;;;;;;22.23;47.85;100877.38;5014836;28;20026;-62
2023/07/21 04:41:16;;;;;;;7.38;4.95;;;;;;;22.23;47.69;100871.91;5032468;28;20049;-62
2023/07/21 04:43:43;;;;;;;6.55;4.88;;;;;;;22.29;47.99;100882.03;5043546;28;20499;-61
2023/07/21 04:46:10;;;;;;;7.50;5.95;;;;;;;22.33;47.88;100877.84;5031634;28;20073;-62
2023/07/21 04:48:35;;;;;;;8.20;5.90;;;;;;;22.37;48.15;100878.25;5043453;28;20029;-61
2023/07/21 04:51:01;;;;;;;8.13;5.75;;;;;;;22.40;47.64;100881.44;5034607;28;20032;-61
2023/07/21 04:53:26;;;;;;;9.95;7.47;;;;;;;22.43;48.04;100886.50;5031251;28;20056;-61
2023/07/21 04:55:58;;;;;;;10.68;6.30;;;;;;;22.48;48.30;100888.59;5032756;28;20029;-62
2023/07/21 04:58:24;;;;;;;9.95;6.22;;;;;;;22.49;47.50;100877.47;5031008;28;20037;-61
2023/07/21 05:00:50;;;;;;;11.13;6.10;;;;;;;22.52;47.91;100881.69;5012706;28;20133;-61
2023/07/21 05:03:15;;;;;;;14.70;6.18;;;;;;;22.56;48.23;100885.66;5014782;28;20034;-61
2023/07/21 05:05:41;;;;;;;8.15;6.53;;;;;;;22.60;48.43;100890.53;5031234;28;20025;-61
2023/07/21 05:08:06;;;;;;;9.25;7.15;;;;;;;22.62;47.63;100882.13;5014534;28;20124;-61
2023/07/21 05:10:31;;;;;;;9.65;6.78;;;;;;;22.69;47.54;100882.19;5036301;28;20059;-62
2023/07/21 05:12:57;;;;;;;7.65;6.50;;;;;;;22.77;47.60;100879.25;5051304;28;20037;-61
2023/07/21 05:15:24;;;;;;;9.10;7.10;;;;;;;22.85;47.71;100881.78;5050875;28;20044;-62
2023/07/21 05:17:50;;;;;;;10.13;7.85;;;;;;;22.92;47.64;100882.66;5050864;28;20036;-61
2023/07/21 05:20:16;;;;;;;10.32;7.75;;;;;;;23.01;47.56;100886.84;5052187;28;20029;-61
2023/07/21 05:22:41;;;;;;;11.48;7.72;;;;;;;23.07;48.09;100875.94;5050992;28;20136;-61
2023/07/21 05:25:08;;;;;;;11.05;7.90;;;;;;;23.21;48.07;100871.31;5053645;28;20060;-62
2023/07/21 05:27:34;;;;;;;13.90;8.10;;;;;;;23.30;47.56;100864.59;5054524;28;20060;-62
2023/07/21 05:29:59;;;;;;;11.52;8.13;;;;;;;23.42;47.41;100871.09;5055605;28;20033;-62
2023/07/21 05:32:25;;;;;;;11.75;7.95;;;;;;;23.57;47.43;100869.00;5055678;28;20112;-61
2023/07/21 05:34:50;;;;;;;11.85;8.07;;;;;;;23.75;47.79;100862.88;5055515;28;20138;-61
2023/07/21 05:37:16;;;;;;;13.88;8.85;;;;;;;23.89;47.29;100869.16;5054083;28;20033;-61
2023/07/21 05:39:42;;;;;;;13.50;8.30;;;;;;;24.01;47.65;100873.72;5055661;28;20132;-61
2023/07/21 05:42:07;;;;;;;12.10;8.85;;;;;;;24.13;47.62;100877.50;5055560;28;20453;-61
2023/07/21 05:44:33;;;;;;;15.63;9.02;;;;;;;24.37;47.06;100873.22;5055526;28;20048;-60
2023/07/21 05:46:59;;;;;;;11.90;8.98;;;;;;;24.58;47.14;100872.88;5054532;28;20377;-62
2023/07/21 05:49:25;;;;;;;10.43;8.48;;;;;;;24.79;46.75;100869.81;5054624;28;20059;-63
2023/07/21 05:51:51;;;;;;;10.75;8.30;;;;;;;25.00;46.68;100870.53;5037452;28;20036;-61
2023/07/21 05:54:17;;;;;;;12.82;8.75;;;;;;;25.20;46.50;100872.06;5054472;28;20115;-61
2023/07/21 05:56:42;;;;;;;11.88;8.15;;;;;;;25.34;46.49;100870.88;5054889;28;20526;-61
2023/07/21 05:59:07;;;;;;;12.05;8.18;;;;;;;25.47;46.07;100869.94;5054044;28;20516;-61
2023/07/21 06:01:36;;;;;;;15.90;9.55;;;;;;;25.60;46.25;100874.47;5035998;28;20037;-61
2023/07/21 06:04:05;;;;;;;12.15;7.95;;;;;;;25.67;46.16;100881.56;5055281;28;20091;-61
2023/07/21 06:06:33;;;;;;;12.00;7.90;;;;;;;25.82;45.80;100868.34;5055153;28;20459;-62
2023/07/21 06:08:58;;;;;;;12.10;7.65;;;;;;;25.95;46.11;100870.06;5054162;28;20033;-62
2023/07/21 06:11:25;;;;;;;10.10;7.88;;;;;;;26.10;45.73;100869.69;5054443;28;20383;-62
2023/07/21 06:13:50;;;;;;;11.45;7.85;;;;;;;26.14;46.05;100874.53;5053155;28;20047;-61
2023/07/21 06:16:22;;;;;;;11.23;7.85;;;;;;;26.31;45.31;100875.59;5053675;28;20037;-61
2023/07/21 06:18:49;;;;;;;12.35;8.52;;;;;;;26.54;45.48;100877.59;5053573;28;20051;-61
2023/07/21 06:21:14;;;;;;;11.80;7.82;;;;;;;26.65;44.83;100885.06;5052526;28;20033;-61
2023/07/21 06:23:40;;;;;;;9.90;7.60;;;;;;;26.80;45.40;100876.44;5053464;28;20043;-62
2023/07/21 06:26:05;;;;;;;10.23;7.55;;;;;;;27.03;45.21;100877.31;5054701;28;20033;-62
2023/07/21 06:28:30;;;;;;;12.20;8.40;;;;;;;26.98;45.35;100870.84;5054743;28;20043;-63
2023/07/21 06:30:56;;;;;;;12.85;8.60;;;;;;;26.92;45.33;100880.88;5054228;28;20057;-61
2023/07/21 06:33:22;;;;;;;12.88;8.20;;;;;;;27.01;44.83;100879.47;5053632;28;20037;-62
2023/07/21 06:35:49;;;;;;;12.55;8.95;;;;;;;27.17;44.77;100869.69;5036729;28;20040;-61
2023/07/21 06:38:14;;;;;;;13.90;8.07;;;;;;;27.51;44.19;100862.56;5054448;28;20025;-62
2023/07/21 06:40:39;;;;;;;10.23;7.75;;;;;;;27.72;43.66;100867.50;5054835;28;20106;-62
2023/07/21 06:43:05;;;;;;;13.13;8.93;;;;;;;27.58;43.83;100857.78;5052958;28;20032;-62
2023/07/21 06:45:30;;;;;;;11.05;8.13;;;;;;;27.66;43.58;100863.78;5052972;28;20044;-62
2023/07/21 06:47:56;;;;;;;12.40;8.80;;;;;;;27.72;43.87;100861.97;5054009;28;20037;-61
2023/07/21 06:50:21;;;;;;;11.40;8.15;;;;;;;27.78;43.95;100849.97;5036213;28;20029;-61
2023/07/21 06:52:46;;;;;;;10.35;7.93;;;;;;;27.78;44.14;100858.25;5053091;28;20040;-62
2023/07/21 06:55:12;;;;;;;12.45;8.30;;;;;;;27.82;43.64;100853.09;5054116;28;20033;-63
2023/07/21 06:57:37;;;;;;;13.05;9.45;;;;;;;27.85;43.76;100853.47;5052759;28;20119;-63
2023/07/21 07:00:05;;;;;;;15.25;8.32;;;;;;;27.87;42.76;100851.28;5052774;28;20508;-61
2023/07/21 07:02:31;;;;;;;13.27;8.57;;;;;;;27.81;43.50;100852.25;5054128;28;20109;-65
2023/07/21 07:04:56;;;;;;;12.45;8.73;;;;;;;27.70;43.08;100853.94;5035925;28;20603;-62
2023/07/21 07:07:21;;;;;;;12.20;9.23;;;;;;;27.59;43.09;100853.94;5053758;28;20508;-61
2023/07/21 07:09:47;;;;;;;14.15;8.82;;;;;;;27.52;42.89;100847.75;5053694;28;20074;-61
2023/07/21 07:12:12;;;;;;;14.73;8.23;;;;;;;27.53;43.63;100853.00;5052354;28;20164;-61
2023/07/21 07:14:38;;;;;;;14.48;8.90;;;;;;;27.52;43.26;100842.25;5053776;28;20051;-61
2023/07/21 07:17:03;;;;;;;12.50;8.60;;;;;;;27.62;43.49;100858.97;5052202;28;20033;-61
2023/07/21 07:19:28;;;;;;;13.45;9.13;;;;;;;27.71;43.27;100858.38;5052313;28;20025;-62
2023/07/21 07:21:54;;;;;;;11.15;8.63;;;;;;;27.80;42.42;100853.34;5051931;28;20493;-62
2023/07/21 07:24:20;;;;;;;11.70;9.05;;;;;;;27.99;43.01;100849.34;5052259;28;20040;-61
2023/07/21 07:26:46;;;;;;;10.30;7.53;;;;;;;28.08;42.29;100850.69;5053462;28;20037;-62
2023/07/21 07:29:11;;;;;;;10.55;7.95;;;;;;;28.22;42.61;100854.84;5052207;28;20084;-63
2023/07/21 07:31:37;;;;;;;11.43;8.15;;;;;;;28.25;42.64;100840.56;5052047;28;20039;-62
2023/07/21 07:34:03;;;;;;;11.55;8.32;;;;;;;28.33;42.96;100846.78;5052090;28;20515;-62
2023/07/21 07:36:28;;;;;;;12.93;9.27;;;;;;;28.38;42.24;100852.38;5053159;28;20064;-62
2023/07/21 07:38:54;;;;;;;13.80;8.95;;;;;;;28.30;42.78;100846.19;5052305;28;20029;-62
2023/07/21 07:41:20;;;;;;;15.30;10.00;;;;;;;28.28;42.34;100842.81;5053110;28;20052;-62
2023/07/21 07:43:46;;;;;;;13.75;8.13;;;;;;;28.38;42.40;100846.88;5036071;28;20036;-62
2023/07/21 07:46:11;;;;;;;13.88;8.18;;;;;;;28.59;42.32;100848.94;5035186;28;20503;-62
2023/07/21 07:48:37;;;;;;;12.93;8.95;;;;;;;28.95;41.79;100851.28;5051688;28;20037;-62
2023/07/21 07:51:04;;;;;;;13.85;9.07;;;;;;;29.14;40.85;100852.75;5052972;28;20127;-62
2023/07/21 07:53:30;;;;;;;9.48;7.22;;;;;;;29.29;40.85;100847.47;5052010;28;20413;-62
2023/07/21 07:55:57;;;;;;;13.15;8.85;;;;;;;29.49;40.97;100848.88;5051661;28;20164;-62
2023/07/21 07:58:22;;;;;;;11.43;7.35;;;;;;;29.72;40.78;100865.25;5051583;28;20033;-62
2023/07/21 08:00:48;;;;;;;8.85;7.15;;;;;;;29.79;40.79;100857.63;5052861;28;20591;-61
2023/07/21 08:03:13;;;;;;;9.98;7.32;;;;;;;29.89;40.04;100861.41;5051682;28;20029;-61
2023/07/21 08:05:39;;;;;;;11.98;6.78;;;;;;;30.07;40.16;100868.53;5051492;28;20029;-61
2023/07/21 08:08:06;;;;;;;12.07;6.80;;;;;;;30.37;39.54;100857.91;5034756;28;20029;-61
2023/07/21 08:10:33;;;;;;;10.70;7.10;;;;;;;30.41;39.45;100858.22;5051494;28;20083;-62
2023/07/21 08:13:01;;;;;;;11.38;6.68;;;;;;;30.29;39.42;100857.50;5053115;28;20492;-61
2023/07/21 08:15:26;;;;;;;12.93;8.77;;;;;;;30.17;39.84;100860.41;5053797;28;20540;-62
2023/07/21 08:17:52;;;;;;;12.15;7.15;;;;;;;30.18;39.65;100864.81;5054726;28;20112;-61
2023/07/21 08:20:18;;;;;;;12.27;8.07;;;;;;;30.53;38.80;100876.34;5053546;28;20059;-61
2023/07/21 08:22:47;;;;;;;9.95;7.05;;;;;;;30.50;38.90;100868.56;5053710;28;20040;-61
2023/07/21 08:25:13;;;;;;;10.75;7.55;;;;;;;30.66;38.90;100865.94;5053971;28;20033;-62
2023/07/21 08:27:39;;;;;;;10.65;7.22;;;;;;;30.79;38.68;100868.31;5051936;28;20026;-62
2023/07/21 08:30:08;;;;;;;10.75;7.57;;;;;;;30.71;38.61;100863.25;5051946;28;20037;-61
2023/07/21 08:32:33;;;;;;;10.73;7.75;;;;;;;30.65;38.49;100858.78;5051520;28;20535;-61
2023/07/21 08:34:58;;;;;;;10.02;6.95;;;;;;;30.84;38.07;100857.31;5052815;28;20029;-61
2023/07/21 08:37:24;;;;;;;10.20;6.57;;;;;;;31.01;38.15;100869.13;5051339;28;20116;-62
2023/07/21 08:39:49;;;;;;;6.70;5.45;;;;;;;31.09;37.18;100860.34;5052541;28;20049;-61
2023/07/21 08:42:14;;;;;;;8.38;6.20;;;;;;;31.40;36.88;100859.50;5051111;28;20040;-62
2023/07/21 08:44:40;;;;;;;6.75;5.90;;;;;;;31.52;37.40;100854.59;5051236;28;20045;-62
2023/07/21 08:47:06;;;;;;;9.10;6.00;;;;;;;31.60;36.83;100851.31;5052430;28;20040;-62
2023/07/21 08:49:32;;;;;;;8.48;5.07;;;;;;;31.66;36.82;100855.81;5052437;28;20056;-65
2023/07/21 08:51:58;;;;;;;7.85;4.63;;;;;;;32.13;35.76;100849.44;5051162;28;20415;-65
2023/07/21 08:54:24;;;;;;;4.97;3.63;;;;;;;32.26;35.98;100848.94;5051126;28;20040;-65
2023/07/21 08:56:50;;;;;;;6.32;4.53;;;;;;;32.00;36.19;100860.97;5052285;28;20037;-65
2023/07/21 08:59:18;;;;;;;6.40;4.85;;;;;;;32.33;35.42;100845.91;5035044;28;20500;-65
2023/07/21 09:01:43;;;;;;;6.38;4.90;;;;;;;32.75;34.81;100852.97;5038364;28;20096;-65
2023/07/21 09:04:20;;;;;;;7.07;4.38;;;;;;;33.09;34.08;100846.94;5055869;28;20029;-65
2023/07/21 09:06:57;;;;;;;8.18;4.13;;;;;;;33.49;33.79;100846.91;5057173;28;20033;-65
2023/07/21 09:09:24;;;;;;;5.07;3.15;;;;;;;33.90;33.56;100844.91;5055094;28;20037;-65
2023/07/21 09:12:00;;;;;;;3.70;3.00;;;;;;;34.11;33.12;100837.34;5055653;28;20032;-65
2023/07/21 09:14:35;;;;;;;2.65;2.40;;;;;;;34.49;32.38;100850.50;5056948;28;20435;-65
2023/07/21 09:17:03;;;;;;;3.88;1.95;;;;;;;34.75;32.32;100849.28;5056288;28;20040;-64
2023/07/21 09:19:28;;;;;;;3.03;2.10;;;;;;;35.06;31.67;100850.75;5055904;28;20039;-65
2023/07/21 09:21:56;;;;;;;4.93;2.30;;;;;;;35.37;31.08;100842.13;5055979;28;20111;-65
2023/07/21 09:24:21;;;;;;;6.45;2.03;;;;;;;35.44;30.95;100840.63;5038391;28;20029;-65
2023/07/21 09:26:47;;;;;;;1.77;1.63;;;;;;;35.20;31.31;100838.94;5054432;28;20039;-65
2023/07/21 09:29:19;;;;;;;2.83;2.42;;;;;;;35.01;30.76;100847.94;5055016;28;20049;-65
2023/07/21 09:31:47;;;;;;;2.22;2.03;;;;;;;35.05;31.30;100849.03;5054765;28;20055;-65
2023/07/21 09:34:12;;;;;;;2.97;2.00;;;;;;;35.18;31.05;100849.53;5054870;28;20025;-64
2023/07/21 09:36:47;;;;;;;4.10;2.20;;;;;;;35.25;30.61;100841.66;5054280;28;20120;-65
2023/07/21 09:39:14;;;;;;;3.53;1.60;;;;;;;35.27;30.80;100850.56;5037291;28;20025;-65
2023/07/21 09:41:40;;;;;;;3.00;2.05;;;;;;;35.28;30.63;100846.66;5054230;28;20033;-65
2023/07/21 09:44:05;;;;;;;2.80;2.50;;;;;;;35.27;30.01;100840.25;5054324;28;20444;-65
2023/07/21 09:46:31;;;;;;;4.32;2.17;;;;;;;35.20;29.58;100845.34;5054123;28;20021;-65
2023/07/21 09:48:56;;;;;;;5.70;3.22;;;;;;;35.21;30.00;100840.56;5037503;28;20033;-65
2023/07/21 09:51:22;;;;;;;2.65;2.45;;;;;;;35.26;29.94;100843.34;5054023;28;20029;-65
2023/07/21 09:53:49;;;;;;;3.95;2.63;;;;;;;35.01;30.17;100842.38;5055335;28;20025;-65
2023/07/21 09:56:15;;;;;;;2.85;2.13;;;;;;;34.88;30.00;100843.03;5055024;28;20025;-64
2023/07/21 09:58:57;;;;;;;4.18;2.55;;;;;;;34.63;29.65;100845.16;5053754;28;20116;-65
2023/07/21 10:01:23;;;;;;;;;;;;;;;34.27;30.54;100839.78;5054333;28;20048;-64
2023/07/21 10:03:49;;;;;;;4.10;2.60;;;;;;;33.97;30.99;100834.31;5053933;28;19912;-64
2023/07/21 10:06:15;;;;;;;3.58;2.17;;;;;;;33.74;31.04;100841.34;5036978;28;20025;-64
2023/07/21 10:08:41;;;;;;;2.53;2.25;;;;;;;33.64;31.28;100838.56;5053886;28;20033;-62
2023/07/21 10:11:09;;;;;;;2.53;2.20;;;;;;;33.54;30.94;100848.84;5036857;28;20060;-62
2023/07/21 10:13:43;;;;;;;2.85;2.00;;;;;;;33.31;31.06;100836.38;5053673;28;20053;-62
2023/07/21 10:16:11;;;;;;;6.30;2.38;;;;;;;33.16;31.90;100841.94;5053398;28;20033;-62
2023/07/21 10:19:01;;;;;;;3.60;2.30;;;;;;;33.35;30.33;100843.88;5053620;28;20044;-62
2023/07/21 10:21:31;;;;;;;4.95;2.50;;;;;;;34.04;30.10;100836.78;5053552;28;20451;-62
2023/07/21 10:23:59;;;;;;;3.78;2.75;;;;;;;34.38;30.00;100837.78;5053400;28;20033;-62
2023/07/21 10:26:25;;;;;;;3.45;2.35;;;;;;;34.65;29.70;100832.63;5054798;28;20039;-62
2023/07/21 10:28:51;;;;;;;3.40;2.45;;;;;;;35.23;28.93;100830.81;5053131;28;20502;-62
2023/07/21 10:34:14;;;;;;;3.50;3.07;;;;;;;35.62;28.77;100819.59;5054442;28;20394;-62
2023/07/21 10:36:51;;;;;;;4.05;2.80;;;;;;;35.55;28.62;100824.66;5052888;28;20270;-62
2023/07/21 10:39:21;;;;;;;2.78;2.28;;;;;;;36.32;27.97;100814.28;5054143;28;20501;-62
2023/07/21 10:41:48;;;;;;;2.67;2.20;;;;;;;36.71;28.03;100818.44;5053311;28;20071;-61
2023/07/21 10:44:14;;;;;;;2.78;2.38;;;;;;;37.28;27.55;100817.25;5019996;28;20037;-62
2023/07/21 10:46:42;;;;;;;2.17;1.92;;;;;;;37.26;27.63;100811.16;5054236;28;20021;-62
2023/07/21 10:49:12;;;;;;;5.10;3.28;;;;;;;37.10;27.84;100812.56;5053061;28;20112;-62
2023/07/21 10:51:42;;;;;;;5.55;3.65;;;;;;;37.79;26.71;100810.72;5053159;28;20457;-62
2023/07/21 10:54:08;;;;;;;4.72;2.40;;;;;;;38.32;26.53;100806.28;5052964;28;20116;-63
2023/07/21 10:56:38;;;;;;;3.17;2.88;;;;;;;38.86;25.91;100804.47;5052705;28;20449;-62
2023/07/21 10:59:04;;;;;;;2.45;2.25;;;;;;;38.91;25.84;100798.72;5052997;28;20029;-63
2023/07/21 11:01:31;;;;;;;2.72;1.63;;;;;;;38.59;26.47;100793.31;5052692;28;20523;-62
2023/07/21 11:03:57;;;;;;;2.88;2.33;;;;;;;39.14;25.56;100793.94;5052660;28;20044;-62
2023/07/21 11:06:23;;;;;;;3.78;2.88;;;;;;;39.20;25.90;100785.09;5052450;28;20116;-62
2023/07/21 11:08:49;;;;;;;2.28;2.00;;;;;;;39.25;24.78;100781.34;5052686;28;20115;-62
2023/07/21 11:11:15;;;;;;;2.38;2.15;;;;;;;39.69;24.68;100783.22;5052587;28;20037;-62
2023/07/21 11:13:41;;;;;;;2.78;2.58;;;;;;;39.98;24.76;100777.88;5053712;28;20046;-62
2023/07/21 11:16:06;;;;;;;4.28;2.00;;;;;;;40.16;24.04;100765.53;5035798;28;20063;-62
2023/07/21 11:18:32;;;;;;;1.90;1.65;;;;;;;40.35;24.31;100763.25;5026533;28;20098;-64
2023/07/21 11:20:57;;;;;;;1.75;1.55;;;;;;;40.57;23.85;100771.53;5035843;28;20044;-64